createdAt,value
2024-01-29T00:01:58.635Z,1.23
2024-01-29T00:04:25.715Z,1.27
2024-01-29T00:06:52.270Z,0.77
2024-01-29T00:09:18.963Z,0.45
2024-01-29T00:11:45.782Z,1.20
2024-01-29T00:14:12.577Z,1.13
2024-01-29T00:16:39.316Z,1.02
2024-01-29T00:19:06.162Z,0.68
2024-01-29T00:21:32.785Z,2.15
2024-01-29T00:23:59.276Z,1.65
2024-01-29T00:26:25.916Z,1.95
2024-01-29T00:28:52.390Z,1.38
2024-01-29T00:31:20.369Z,0.85
2024-01-29T00:33:48.311Z,1.90
2024-01-29T00:36:17.935Z,0.80
2024-01-29T00:38:44.689Z,0.45
2024-01-29T00:41:11.135Z,0.47
2024-01-29T00:43:37.880Z,0.55
2024-01-29T00:46:04.652Z,1.90
2024-01-29T00:48:31.332Z,0.52
2024-01-29T00:50:57.865Z,0.77
2024-01-29T00:53:24.604Z,1.52
2024-01-29T00:55:51.091Z,0.50
2024-01-29T00:58:17.960Z,1.08
2024-01-29T01:00:44.816Z,0.52
2024-01-29T01:03:11.755Z,0.80
2024-01-29T01:05:38.510Z,0.55
2024-01-29T01:08:05.314Z,0.40
2024-01-29T01:10:31.797Z,1.15
2024-01-29T01:12:58.400Z,0.80
2024-01-29T01:15:25.067Z,1.17
2024-01-29T01:17:51.892Z,1.10
2024-01-29T01:20:18.690Z,1.30
2024-01-29T01:22:45.137Z,1.42
2024-01-29T01:25:11.639Z,1.73
2024-01-29T01:27:38.226Z,0.90
2024-01-29T01:30:06.148Z,0.90
2024-01-29T01:34:59.641Z,1.38
2024-01-29T01:37:26.170Z,0.30
2024-01-29T01:39:52.952Z,0.73
2024-01-29T01:42:20.394Z,1.02
2024-01-29T01:44:47.387Z,1.58
2024-01-29T01:47:14.726Z,0.73
2024-01-29T01:49:42.436Z,1.20
2024-01-29T01:52:09.937Z,0.60
2024-01-29T01:57:05.096Z,0.60
2024-01-29T01:59:35.441Z,0.47
2024-01-29T02:02:02.159Z,1.58
2024-01-29T02:04:28.961Z,0.88
2024-01-29T02:06:56.462Z,0.60
2024-01-29T02:09:23.778Z,1.42
2024-01-29T02:11:50.529Z,1.90
2024-01-29T02:14:17.006Z,1.50
2024-01-29T02:16:43.746Z,0.60
2024-01-29T02:19:16.397Z,1.33
2024-01-29T02:21:43.930Z,0.85
2024-01-29T02:24:10.394Z,1.58
2024-01-29T02:26:36.887Z,1.55
2024-01-29T02:29:03.700Z,1.58
2024-01-29T02:31:30.247Z,2.05
2024-01-29T02:33:56.843Z,1.33
2024-01-29T02:38:51.052Z,1.17
2024-01-29T02:41:17.797Z,1.00
2024-01-29T02:43:44.530Z,2.03
2024-01-29T02:46:11.082Z,0.45
2024-01-29T02:48:38.915Z,0.95
2024-01-29T02:51:06.518Z,0.70
2024-01-29T02:55:59.276Z,0.25
2024-01-29T02:58:25.933Z,1.25
2024-01-29T03:00:52.445Z,0.80
2024-01-29T03:03:18.965Z,0.60
2024-01-29T03:05:45.655Z,1.27
2024-01-29T03:08:12.355Z,1.67
2024-01-29T03:10:39.112Z,1.60
2024-01-29T03:13:05.578Z,1.40
2024-01-29T03:15:32.403Z,1.48
2024-01-29T03:17:58.980Z,0.65
2024-01-29T03:20:25.799Z,1.25
2024-01-29T03:22:52.560Z,2.53
2024-01-29T03:25:19.292Z,1.15
2024-01-29T03:27:45.852Z,1.48
2024-01-29T03:30:12.882Z,1.05
2024-01-29T03:32:40.434Z,0.85
2024-01-29T03:37:33.944Z,1.05
2024-01-29T03:40:00.767Z,2.95
2024-01-29T03:42:27.312Z,1.80
2024-01-29T03:44:54.099Z,0.57
2024-01-29T03:47:20.852Z,0.85
2024-01-29T03:49:47.444Z,0.98
2024-01-29T03:52:14.297Z,1.02
2024-01-29T03:54:40.857Z,1.33
2024-01-29T03:57:07.402Z,1.35
2024-01-29T03:59:35.413Z,0.95
2024-01-29T04:02:02.437Z,1.73
2024-01-29T04:04:28.961Z,1.33
2024-01-29T04:06:55.601Z,1.35
2024-01-29T04:09:23.635Z,0.75
2024-01-29T04:11:50.303Z,1.13
2024-01-29T04:14:16.745Z,1.35
2024-01-29T04:16:46.130Z,0.82
2024-01-29T04:19:13.076Z,0.57
2024-01-29T04:21:43.730Z,0.65
2024-01-29T04:24:11.795Z,1.00
2024-01-29T04:26:41.937Z,0.50
2024-01-29T04:29:08.602Z,1.63
2024-01-29T04:31:35.841Z,1.85
2024-01-29T04:34:02.441Z,0.50
2024-01-29T04:36:29.001Z,0.73
2024-01-29T04:38:55.793Z,1.30
2024-01-29T04:41:23.299Z,1.50
2024-01-29T04:43:50.583Z,1.90
2024-01-29T04:46:17.173Z,0.85
2024-01-29T04:48:43.757Z,1.15
2024-01-29T04:51:13.315Z,1.85
2024-01-29T04:53:40.718Z,1.25
2024-01-29T04:56:08.108Z,1.10
2024-01-29T04:58:34.883Z,1.38
2024-01-29T05:01:02.794Z,1.20
2024-01-29T05:03:29.784Z,1.85
2024-01-29T05:05:57.153Z,1.90
2024-01-29T05:08:24.087Z,1.75
2024-01-29T05:10:50.763Z,0.80
2024-01-29T05:13:17.376Z,1.73
2024-01-29T05:15:44.130Z,2.08
2024-01-29T05:18:10.727Z,1.55
2024-01-29T05:20:37.488Z,1.10
2024-01-29T05:23:04.698Z,1.02
2024-01-29T05:25:32.938Z,1.83
2024-01-29T05:27:59.472Z,0.68
2024-01-29T05:30:25.992Z,0.40
2024-01-29T05:32:52.518Z,0.70
2024-01-29T05:35:19.023Z,0.98
2024-01-29T05:37:45.737Z,1.08
2024-01-29T05:40:12.528Z,1.48
2024-01-29T05:42:40.119Z,0.75
2024-01-29T05:45:09.400Z,1.17
2024-01-29T05:47:39.160Z,0.65
2024-01-29T05:50:06.168Z,2.00
2024-01-29T05:52:33.821Z,1.08
2024-01-29T05:55:00.581Z,0.68
2024-01-29T05:57:28.607Z,1.33
2024-01-29T05:59:55.462Z,1.08
2024-01-29T06:02:22.044Z,1.38
2024-01-29T06:04:48.667Z,2.42
2024-01-29T06:07:15.439Z,1.77
2024-01-29T06:09:42.005Z,1.20
2024-01-29T06:12:09.292Z,0.68
2024-01-29T06:14:35.744Z,1.00
2024-01-29T06:17:02.215Z,1.25
2024-01-29T06:19:28.993Z,1.52
2024-01-29T06:21:55.513Z,1.85
2024-01-29T06:24:22.017Z,0.47
2024-01-29T06:26:49.364Z,0.77
2024-01-29T06:29:16.403Z,0.90
2024-01-29T06:31:43.449Z,0.75
2024-01-29T06:34:10.189Z,1.10
2024-01-29T06:36:37.091Z,0.90
2024-01-29T06:39:04.049Z,1.70
2024-01-29T06:41:30.777Z,2.70
2024-01-29T06:43:57.244Z,1.52
2024-01-29T06:46:24.349Z,1.33
2024-01-29T06:48:50.875Z,2.00
2024-01-29T06:51:17.565Z,1.08
2024-01-29T06:53:44.375Z,1.20
2024-01-29T06:56:10.850Z,1.10
2024-01-29T06:58:37.346Z,0.95
2024-01-29T07:01:05.109Z,1.77
2024-01-29T07:03:33.881Z,0.82
2024-01-29T07:06:02.034Z,1.85
2024-01-29T07:08:28.825Z,1.15
2024-01-29T07:10:55.622Z,1.42
2024-01-29T07:13:22.108Z,1.63
2024-01-29T07:15:48.833Z,1.13
2024-01-29T07:18:15.965Z,2.40
2024-01-29T07:20:44.940Z,1.30
2024-01-29T07:23:11.613Z,0.57
2024-01-29T07:25:38.485Z,1.17
2024-01-29T07:28:06.223Z,1.58
2024-01-29T07:30:33.334Z,0.73
2024-01-29T07:33:01.116Z,0.88
2024-01-29T07:35:27.964Z,0.57
2024-01-29T07:37:54.800Z,1.88
2024-01-29T07:40:21.567Z,2.08
2024-01-29T07:42:48.635Z,1.70
2024-01-29T07:45:16.144Z,2.03
2024-01-29T07:47:43.136Z,1.52
2024-01-29T07:50:09.637Z,0.85
2024-01-29T07:52:36.084Z,1.10
2024-01-29T07:55:02.892Z,0.65
2024-01-29T07:57:29.713Z,0.50
2024-01-29T07:59:56.299Z,0.77
2024-01-29T08:02:23.193Z,2.17
2024-01-29T08:04:49.816Z,1.35
2024-01-29T08:07:16.745Z,1.20
2024-01-29T08:09:43.600Z,1.08
2024-01-29T08:12:10.169Z,1.30
2024-01-29T08:14:36.615Z,1.20
2024-01-29T08:17:03.592Z,0.82
2024-01-29T08:19:30.617Z,1.73
2024-01-29T08:21:57.422Z,0.73
2024-01-29T08:24:24.302Z,1.30
2024-01-29T08:26:51.093Z,0.45
2024-01-29T08:29:17.596Z,1.08
2024-01-29T08:31:45.900Z,0.80
2024-01-29T08:34:12.777Z,1.38
2024-01-29T08:36:39.537Z,2.17
2024-01-29T08:39:08.551Z,1.23
2024-01-29T08:41:35.190Z,0.93
2024-01-29T08:44:01.884Z,1.08
2024-01-29T08:46:30.929Z,1.02
2024-01-29T08:48:57.813Z,1.55
2024-01-29T08:51:24.770Z,1.10
2024-01-29T08:53:51.598Z,1.30
2024-01-29T08:56:18.246Z,0.60
2024-01-29T08:58:44.946Z,1.38
2024-01-29T09:01:11.688Z,1.15
2024-01-29T09:03:41.190Z,1.50
2024-01-29T09:06:08.992Z,1.90
2024-01-29T09:11:03.114Z,0.73
2024-01-29T09:13:29.562Z,0.65
2024-01-29T09:15:56.308Z,1.38
2024-01-29T09:18:25.014Z,1.52
2024-01-29T09:20:51.490Z,0.77
2024-01-29T09:23:18.354Z,2.60
2024-01-29T09:25:44.985Z,0.95
2024-01-29T09:28:11.893Z,1.38
2024-01-29T09:30:38.445Z,1.27
2024-01-29T09:33:15.153Z,1.10
2024-01-29T09:35:45.397Z,0.60
2024-01-29T09:38:11.894Z,1.30
2024-01-29T09:40:38.356Z,1.00
2024-01-29T09:43:07.172Z,0.80
2024-01-29T09:45:34.847Z,1.38
2024-01-29T09:48:03.927Z,1.02
2024-01-29T09:50:32.255Z,1.45
2024-01-29T09:53:01.240Z,0.60
2024-01-29T09:55:28.265Z,1.88
2024-01-29T09:57:54.874Z,1.08
2024-01-29T10:00:21.759Z,0.82
2024-01-29T10:02:49.767Z,2.03
2024-01-29T10:05:16.367Z,1.13
2024-01-29T10:07:43.081Z,1.08
2024-01-29T10:10:10.745Z,1.80
2024-01-29T10:12:38.315Z,0.68
2024-01-29T10:15:05.736Z,0.85
2024-01-29T10:17:32.413Z,1.42
2024-01-29T10:19:58.951Z,1.20
2024-01-29T10:22:25.755Z,1.30
2024-01-29T10:25:05.891Z,1.38
2024-01-29T10:27:32.711Z,1.05
2024-01-29T10:29:59.162Z,1.50
2024-01-29T10:32:25.701Z,0.82
2024-01-29T10:34:52.740Z,1.65
2024-01-29T10:37:22.309Z,1.10
2024-01-29T10:39:56.739Z,1.17
2024-01-29T10:42:31.689Z,0.57
2024-01-29T10:45:01.214Z,1.60
2024-01-29T10:47:40.948Z,1.40
2024-01-29T10:50:08.754Z,1.23
2024-01-29T10:52:35.551Z,0.82
2024-01-29T10:55:02.969Z,1.70
2024-01-29T10:57:31.224Z,1.27
2024-01-29T11:00:03.982Z,1.05
2024-01-29T11:02:31.354Z,1.20
2024-01-29T11:04:58.122Z,1.05
2024-01-29T11:07:29.126Z,1.00
2024-01-29T11:10:15.854Z,1.50
2024-01-29T11:12:43.158Z,0.88
2024-01-29T11:15:10.581Z,1.23
2024-01-29T11:17:37.141Z,0.77
2024-01-29T11:20:09.992Z,1.17
2024-01-29T11:22:38.227Z,0.95
2024-01-29T11:25:16.255Z,1.27
2024-01-29T11:27:47.753Z,0.95
2024-01-29T11:30:20.144Z,1.00
2024-01-29T11:32:47.738Z,1.40
2024-01-29T11:35:31.466Z,1.33
2024-01-29T11:38:07.341Z,1.10
2024-01-29T11:40:35.123Z,1.50
2024-01-29T11:43:04.663Z,1.27
2024-01-29T11:45:31.196Z,1.35
2024-01-29T11:47:58.737Z,1.55
2024-01-29T11:50:25.507Z,1.27
2024-01-29T11:53:00.048Z,1.48
2024-01-29T11:55:32.460Z,1.23
2024-01-29T11:58:00.449Z,0.80
2024-01-29T12:00:27.008Z,1.35
2024-01-29T12:02:53.510Z,1.67
2024-01-29T12:05:20.069Z,1.40
2024-01-29T12:07:47.857Z,1.08
2024-01-29T12:10:15.585Z,0.75
2024-01-29T12:12:42.426Z,1.40
2024-01-29T12:15:13.741Z,0.77
2024-01-29T12:17:45.994Z,1.67
2024-01-29T12:20:14.349Z,1.27
2024-01-29T12:22:42.365Z,1.10
2024-01-29T12:25:12.773Z,1.98
2024-01-29T12:27:40.722Z,1.08
2024-01-29T12:30:12.396Z,1.55
2024-01-29T12:32:39.078Z,1.00
2024-01-29T12:35:24.855Z,1.00
2024-01-29T12:37:52.397Z,0.93
2024-01-29T12:40:19.497Z,0.95
2024-01-29T12:45:16.439Z,1.00
2024-01-29T12:47:43.223Z,0.80
2024-01-29T12:50:10.086Z,1.20
2024-01-29T12:52:36.864Z,0.80
2024-01-29T12:55:03.408Z,1.38
2024-01-29T12:57:29.909Z,0.85
2024-01-29T12:59:56.468Z,1.25
2024-01-29T13:02:22.949Z,1.45
2024-01-29T13:04:49.434Z,1.15
2024-01-29T13:07:15.996Z,1.23
2024-01-29T13:09:42.807Z,2.22
2024-01-29T13:12:09.429Z,1.00
2024-01-29T13:14:35.931Z,0.80
2024-01-29T13:17:02.377Z,0.80
2024-01-29T13:19:28.957Z,1.10
2024-01-29T13:21:55.768Z,0.88
2024-01-29T13:26:49.689Z,0.93
2024-01-29T13:29:16.702Z,1.10
2024-01-29T13:31:43.137Z,0.65
2024-01-29T13:34:09.710Z,0.98
2024-01-29T13:36:36.190Z,0.93
2024-01-29T13:39:02.928Z,1.00
2024-01-29T13:41:29.342Z,1.30
2024-01-29T13:43:55.894Z,1.55
2024-01-29T13:46:22.430Z,1.10
2024-01-29T13:48:49.270Z,1.63
2024-01-29T13:51:20.224Z,1.02
2024-01-29T13:53:46.672Z,1.20
2024-01-29T13:56:13.472Z,1.13
2024-01-29T13:58:40.214Z,1.52
2024-01-29T14:01:06.696Z,1.10
2024-01-29T14:03:33.552Z,0.52
2024-01-29T14:06:00.088Z,0.93
2024-01-29T14:08:26.651Z,1.13
2024-01-29T14:10:53.318Z,0.90
2024-01-29T14:13:19.781Z,0.88
2024-01-29T14:15:46.341Z,1.30
2024-01-29T14:18:12.860Z,0.93
2024-01-29T14:20:39.625Z,1.50
2024-01-29T14:23:06.672Z,0.73
2024-01-29T14:25:33.416Z,2.05
2024-01-29T14:28:00.695Z,1.33
2024-01-29T14:30:27.224Z,1.40
2024-01-29T14:32:54.020Z,1.20
2024-01-29T14:35:20.575Z,1.02
2024-01-29T14:37:47.313Z,1.20
2024-01-29T14:40:14.468Z,1.70
2024-01-29T14:42:41.286Z,1.52
2024-01-29T14:45:08.349Z,1.20
2024-01-29T14:47:34.851Z,1.20
2024-01-29T14:50:02.527Z,1.50
2024-01-29T14:52:29.037Z,1.35
2024-01-29T14:54:56.216Z,1.23
2024-01-29T14:57:22.770Z,1.00
2024-01-29T14:59:49.579Z,1.42
2024-01-29T15:02:18.788Z,1.30
2024-01-29T15:04:45.511Z,1.20
2024-01-29T15:07:12.175Z,0.98
2024-01-29T15:09:38.834Z,1.63
2024-01-29T15:12:05.827Z,1.02
2024-01-29T15:14:32.271Z,1.75
2024-01-29T15:17:01.225Z,1.40
2024-01-29T15:19:32.343Z,1.13
2024-01-29T15:21:59.758Z,2.08
2024-01-29T15:24:26.607Z,1.25
2024-01-29T15:26:53.285Z,1.08
2024-01-29T15:29:20.092Z,1.05
2024-01-29T15:31:46.551Z,1.40
2024-01-29T15:34:13.399Z,1.42
2024-01-29T15:36:40.221Z,1.33
2024-01-29T15:39:06.934Z,1.38
2024-01-29T15:41:34.580Z,1.88
2024-01-29T15:44:01.316Z,1.45
2024-01-29T15:46:27.826Z,1.10
2024-01-29T15:48:54.735Z,1.83
2024-01-29T15:51:25.147Z,1.50
2024-01-29T15:53:53.899Z,2.33
2024-01-29T15:56:20.338Z,1.73
2024-01-29T15:58:46.943Z,3.08
2024-01-29T16:01:13.575Z,2.05
2024-01-29T16:03:40.246Z,2.50
2024-01-29T16:06:07.135Z,3.03
2024-01-29T16:08:33.892Z,2.75
2024-01-29T16:11:00.758Z,1.83
2024-01-29T16:13:27.374Z,2.55
2024-01-29T16:15:54.130Z,2.00
2024-01-29T16:18:20.703Z,2.55
2024-01-29T16:20:47.364Z,3.20
2024-01-29T16:23:14.126Z,3.05
2024-01-29T16:25:40.672Z,4.93
2024-01-29T16:28:09.384Z,6.40
2024-01-29T16:30:38.034Z,4.05
2024-01-29T16:33:04.890Z,3.58
2024-01-29T16:35:31.884Z,3.80
2024-01-29T16:37:58.610Z,4.10
2024-01-29T16:40:25.386Z,3.65
2024-01-29T16:42:51.856Z,3.22
2024-01-29T16:45:18.717Z,3.20
2024-01-29T16:47:46.166Z,3.15
2024-01-29T16:50:13.188Z,3.80
2024-01-29T16:52:39.760Z,4.53
2024-01-29T16:55:06.735Z,3.80
2024-01-29T16:57:33.582Z,4.78
2024-01-29T17:00:00.369Z,5.00
2024-01-29T17:02:27.179Z,4.68
2024-01-29T17:04:53.749Z,3.20
2024-01-29T17:07:20.414Z,3.83
2024-01-29T17:09:47.134Z,4.07
2024-01-29T17:12:13.941Z,3.70
2024-01-29T17:14:40.468Z,3.60
2024-01-29T17:17:13.008Z,3.72
2024-01-29T17:19:40.206Z,2.63
2024-01-29T17:22:07.110Z,3.58
2024-01-29T17:24:33.633Z,2.75
2024-01-29T17:27:00.341Z,3.13
2024-01-29T17:29:27.063Z,3.88
2024-01-29T17:31:53.587Z,3.38
2024-01-29T17:34:20.154Z,3.85
2024-01-29T17:36:46.750Z,4.40
2024-01-29T17:39:13.457Z,4.40
2024-01-29T17:41:41.231Z,5.40
2024-01-29T17:44:09.514Z,4.95
2024-01-29T17:46:36.286Z,3.53
2024-01-29T17:49:03.094Z,3.10
2024-01-29T17:51:29.617Z,4.35
2024-01-29T17:53:56.118Z,3.80
2024-01-29T17:56:22.884Z,3.38
2024-01-29T17:58:49.428Z,2.95
2024-01-29T18:01:16.291Z,2.80
2024-01-29T18:03:43.136Z,3.25
2024-01-29T18:06:10.467Z,3.20
2024-01-29T18:11:04.128Z,2.22
2024-01-29T18:13:32.024Z,2.08
2024-01-29T18:15:58.799Z,2.33
2024-01-29T18:18:25.449Z,2.83
2024-01-29T18:20:52.051Z,3.58
2024-01-29T18:23:18.905Z,2.00
2024-01-29T18:25:45.449Z,2.75
2024-01-29T18:28:11.922Z,3.60
2024-01-29T18:30:38.420Z,2.28
2024-01-29T18:33:05.379Z,3.08
2024-01-29T18:35:31.958Z,3.05
2024-01-29T18:37:58.417Z,3.03
2024-01-29T18:40:25.760Z,2.30
2024-01-29T18:42:52.687Z,3.00
2024-01-29T18:45:19.501Z,1.88
2024-01-29T18:47:46.098Z,1.95
2024-01-29T18:50:12.817Z,2.85
2024-01-29T18:52:39.508Z,2.92
2024-01-29T18:55:06.908Z,2.50
2024-01-29T18:57:33.367Z,2.47
2024-01-29T18:59:59.792Z,2.97
2024-01-29T19:02:26.838Z,2.85
2024-01-29T19:04:53.395Z,1.33
2024-01-29T19:07:20.401Z,3.08
2024-01-29T19:09:47.089Z,2.00
2024-01-29T19:12:13.664Z,1.88
2024-01-29T19:14:40.361Z,1.83
2024-01-29T19:17:08.692Z,2.03
2024-01-29T19:19:35.371Z,2.13
2024-01-29T19:22:02.294Z,2.00
2024-01-29T19:24:28.817Z,3.08
2024-01-29T19:26:55.344Z,2.05
2024-01-29T19:29:21.760Z,2.17
2024-01-29T19:31:48.287Z,2.92
2024-01-29T19:34:14.941Z,2.17
2024-01-29T19:36:42.509Z,1.92
2024-01-29T19:39:09.623Z,2.28
2024-01-29T19:41:36.355Z,1.92
2024-01-29T19:44:03.162Z,1.60
2024-01-29T19:46:29.618Z,1.83
2024-01-29T19:48:56.299Z,2.72
2024-01-29T19:51:22.744Z,2.10
2024-01-29T19:53:49.187Z,2.08
2024-01-29T19:56:15.618Z,1.55
2024-01-29T19:58:42.366Z,1.45
2024-01-29T20:01:08.815Z,2.15
2024-01-29T20:03:35.324Z,1.80
2024-01-29T20:06:04.710Z,2.33
2024-01-29T20:08:31.212Z,1.67
2024-01-29T20:10:57.944Z,1.75
2024-01-29T20:13:26.080Z,1.17
2024-01-29T20:15:52.929Z,1.70
2024-01-29T20:18:19.423Z,2.25
2024-01-29T20:20:45.904Z,1.45
2024-01-29T20:23:12.732Z,1.77
2024-01-29T20:25:39.152Z,1.92
2024-01-29T20:28:06.522Z,2.05
2024-01-29T20:32:59.506Z,0.88
2024-01-29T20:35:26.317Z,1.25
2024-01-29T20:37:52.898Z,2.33
2024-01-29T20:40:19.476Z,1.50
2024-01-29T20:42:45.951Z,1.88
2024-01-29T20:45:12.753Z,2.05
2024-01-29T20:47:39.378Z,2.50
2024-01-29T20:50:07.544Z,1.38
2024-01-29T20:52:34.047Z,2.03
2024-01-29T20:55:07.536Z,2.90
2024-01-29T20:57:41.057Z,2.35
2024-01-29T21:00:08.305Z,3.60
2024-01-29T21:02:34.841Z,3.38
2024-01-29T21:05:01.770Z,2.80
2024-01-29T21:07:30.385Z,2.47
2024-01-29T21:09:57.184Z,2.00
2024-01-29T21:12:23.687Z,2.40
2024-01-29T21:14:50.204Z,1.98
2024-01-29T21:17:16.902Z,1.35
2024-01-29T21:19:43.510Z,2.20
2024-01-29T21:22:10.036Z,1.77
2024-01-29T21:24:36.821Z,2.58
2024-01-29T21:27:03.500Z,2.10
2024-01-29T21:29:30.065Z,2.05
2024-01-29T21:31:56.510Z,1.70
2024-01-29T21:34:23.049Z,1.08
2024-01-29T21:36:49.607Z,1.52
2024-01-29T21:39:16.390Z,1.70
2024-01-29T21:41:43.193Z,1.33
2024-01-29T21:44:09.682Z,2.38
2024-01-29T21:46:36.152Z,2.25
2024-01-29T21:49:04.786Z,1.40
2024-01-29T21:51:31.556Z,2.78
2024-01-29T21:53:58.025Z,1.40
2024-01-29T21:56:24.719Z,2.28
2024-01-29T21:58:51.181Z,2.13
2024-01-29T22:01:18.116Z,2.38
2024-01-29T22:03:44.617Z,1.55
2024-01-29T22:06:11.079Z,2.42
2024-01-29T22:08:38.862Z,1.70
2024-01-29T22:11:05.511Z,1.98
2024-01-29T22:13:32.261Z,1.52
2024-01-29T22:15:58.767Z,1.92
2024-01-29T22:18:25.240Z,1.63
2024-01-29T22:20:51.658Z,2.53
2024-01-29T22:23:18.472Z,1.40
2024-01-29T22:25:45.088Z,2.22
2024-01-29T22:28:11.648Z,1.30
2024-01-29T22:30:38.669Z,1.83
2024-01-29T22:33:05.828Z,2.67
2024-01-29T22:35:32.527Z,2.38
2024-01-29T22:37:59.070Z,1.75
2024-01-29T22:40:25.799Z,1.17
2024-01-29T22:42:52.790Z,2.20
2024-01-29T22:45:19.644Z,1.63
2024-01-29T22:47:46.200Z,2.70
2024-01-29T22:50:13.443Z,1.88
2024-01-29T22:52:42.087Z,2.10
2024-01-29T22:55:10.211Z,2.28
2024-01-29T22:57:38.289Z,1.55
2024-01-29T23:00:05.405Z,1.42
2024-01-29T23:02:34.165Z,0.95
2024-01-29T23:05:00.864Z,1.63
2024-01-29T23:07:27.356Z,3.20
2024-01-29T23:09:54.001Z,2.13
2024-01-29T23:12:20.709Z,1.50
2024-01-29T23:14:47.104Z,3.13
2024-01-29T23:17:13.806Z,2.08
2024-01-29T23:19:40.233Z,2.35
2024-01-29T23:22:07.988Z,2.08
2024-01-29T23:24:34.673Z,1.60
2024-01-29T23:27:01.414Z,1.70
2024-01-29T23:29:27.928Z,1.55
2024-01-29T23:31:54.341Z,2.70
2024-01-29T23:34:20.895Z,1.52
2024-01-29T23:36:47.792Z,1.10
2024-01-29T23:39:14.525Z,2.30
2024-01-29T23:41:42.767Z,2.10
2024-01-29T23:44:09.464Z,1.88
2024-01-29T23:46:35.924Z,2.55
2024-01-29T23:49:02.530Z,2.00
2024-01-29T23:51:29.073Z,2.53
2024-01-29T23:53:55.503Z,2.10
2024-01-29T23:56:21.963Z,2.10
2024-01-29T23:58:48.906Z,1.77
